Time;durP1;ratioP1;P1;durP2;ratioP2;P2;SDS_P1;SDS_P2;PMS_P1;PMS_P2;Temp;Humidity;BMP_temperature;BMP_pressure;BME280_temperature;BME280_humidity;BME280_pressure;Samples;Min_cycle;Max_cycle;Signal;HPM_P1;HPM_P2
2021/07/24 00:01:34;;;;;;;17.17;12.60;;;19.50;99.80;;;;;;6069836;23;20511;-86
2021/07/24 00:04:02;;;;;;;17.20;12.40;;;19.50;99.80;;;;;;6101000;23;20435;-87
2021/07/24 00:06:45;;;;;;;13.60;11.10;;;19.50;99.80;;;;;;6110630;23;20454;-87
2021/07/24 00:09:13;;;;;;;16.90;12.30;;;19.50;99.80;;;;;;6100591;23;20785;-87
2021/07/24 00:11:42;;;;;;;15.57;11.87;;;19.50;99.80;;;;;;6109109;23;20441;-87
2021/07/24 00:14:11;;;;;;;17.27;13.07;;;19.50;99.80;;;;;;6100704;23;20450;-86
2021/07/24 00:16:39;;;;;;;15.07;11.50;;;19.50;99.80;;;;;;6103217;23;20431;-86
2021/07/24 00:19:07;;;;;;;13.37;10.30;;;19.40;99.80;;;;;;6114786;23;20497;-86
2021/07/24 00:21:35;;;;;;;18.40;13.20;;;19.50;99.80;;;;;;6114058;23;20478;-87
2021/07/24 00:24:03;;;;;;;15.67;12.90;;;19.50;99.80;;;;;;6107112;23;20449;-86
2021/07/24 00:26:31;;;;;;;17.03;11.90;;;19.40;99.80;;;;;;6107512;23;20442;-86
2021/07/24 00:29:00;;;;;;;16.57;12.07;;;19.40;99.80;;;;;;6102575;23;20477;-86
2021/07/24 00:31:29;;;;;;;17.63;12.93;;;19.40;99.80;;;;;;6100115;23;20443;-86
2021/07/24 00:33:57;;;;;;;14.63;11.90;;;19.40;99.80;;;;;;6112675;23;20940;-87
2021/07/24 00:36:25;;;;;;;15.00;11.10;;;19.30;99.80;;;;;;6101678;23;20438;-86
2021/07/24 00:38:53;;;;;;;16.60;12.60;;;19.30;99.80;;;;;;6100423;23;20396;-87
2021/07/24 00:41:30;;;;;;;15.00;11.10;;;19.30;99.80;;;;;;6107621;23;20435;-86
2021/07/24 00:44:01;;;;;;;16.73;13.33;;;19.30;99.80;;;;;;6102787;23;20603;-86
2021/07/24 00:46:32;;;;;;;16.50;13.13;;;19.30;99.80;;;;;;6109343;23;20431;-87
2021/07/24 00:49:02;;;;;;;18.37;12.83;;;19.30;99.80;;;;;;6113168;23;20509;-87
2021/07/24 00:51:33;;;;;;;15.67;12.43;;;19.20;99.80;;;;;;6111488;23;20445;-87
2021/07/24 00:54:02;;;;;;;14.77;12.23;;;19.20;99.80;;;;;;6113987;23;20453;-86
2021/07/24 00:56:30;;;;;;;17.43;13.17;;;19.10;99.80;;;;;;6090335;23;20443;-86
2021/07/24 00:58:59;;;;;;;23.43;13.23;;;19.10;99.80;;;;;;6095043;23;20435;-86
2021/07/24 01:01:27;;;;;;;22.00;13.30;;;19.10;99.80;;;;;;6042894;23;20440;-86
2021/07/24 01:03:56;;;;;;;20.03;12.67;;;19.10;99.80;;;;;;6106776;23;20453;-85
2021/07/24 01:06:25;;;;;;;23.60;13.33;;;19.10;99.80;;;;;;6106044;23;20434;-86
2021/07/24 01:08:53;;;;;;;21.93;13.80;;;19.10;99.80;;;;;;6101198;23;20431;-86
2021/07/24 01:11:21;;;;;;;15.77;12.73;;;19.00;99.80;;;;;;6074070;23;20458;-86
2021/07/24 01:13:52;;;;;;;17.50;12.63;;;19.00;99.80;;;;;;6081706;23;20453;-86
2021/07/24 01:16:20;;;;;;;17.20;13.20;;;19.00;99.80;;;;;;6097132;23;20474;-86
2021/07/24 01:18:48;;;;;;;17.00;12.87;;;19.00;99.80;;;;;;6088914;23;20522;-87
2021/07/24 01:21:24;;;;;;;16.10;11.73;;;19.00;99.80;;;;;;6108082;23;20442;-86
2021/07/24 01:23:52;;;;;;;15.50;12.03;;;19.00;99.80;;;;;;6111138;23;20450;-86
2021/07/24 01:26:25;;;;;;;20.07;13.20;;;19.00;99.80;;;;;;6112714;23;20435;-86
2021/07/24 01:28:53;;;;;;;18.10;13.53;;;19.00;99.80;;;;;;6091433;23;20438;-86
2021/07/24 01:31:21;;;;;;;19.40;12.67;;;19.00;99.80;;;;;;6076453;23;20449;-86
2021/07/24 01:33:49;;;;;;;18.93;13.37;;;19.00;99.80;;;;;;6109887;23;20449;-86
2021/07/24 01:36:17;;;;;;;15.83;12.60;;;19.00;99.80;;;;;;6112394;23;21186;-85
2021/07/24 01:38:47;;;;;;;17.13;12.37;;;19.00;99.80;;;;;;6095607;23;20439;-86
2021/07/24 01:41:16;;;;;;;14.90;12.27;;;19.00;99.80;;;;;;6098265;23;20435;-86
2021/07/24 01:43:43;;;;;;;14.00;12.00;;;19.00;99.80;;;;;;6093259;23;20439;-86
2021/07/24 01:46:11;;;;;;;17.50;13.67;;;19.00;99.80;;;;;;6098530;23;21283;-86
2021/07/24 01:48:43;;;;;;;14.70;11.60;;;19.00;99.80;;;;;;6103293;23;20824;-86
2021/07/24 01:54:19;;;;;;;15.57;12.40;;;19.00;99.80;;;;;;6063157;23;20791;-87
2021/07/24 01:56:47;;;;;;;19.50;12.70;;;19.00;99.80;;;;;;6103999;23;20928;-86
2021/07/24 01:59:17;;;;;;;15.17;12.83;;;19.00;99.80;;;;;;6100351;23;20446;-86
2021/07/24 02:01:45;;;;;;;14.80;12.77;;;19.00;99.80;;;;;;6112909;23;20509;-86
2021/07/24 02:04:19;;;;;;;18.60;12.10;;;19.00;99.80;;;;;;6120737;23;20431;-86
2021/07/24 02:06:47;;;;;;;15.07;12.10;;;19.00;99.80;;;;;;6119645;23;20383;-86
2021/07/24 02:09:16;;;;;;;17.57;12.87;;;19.00;99.80;;;;;;6119046;23;20499;-87
2021/07/24 02:11:45;;;;;;;17.67;13.03;;;19.00;99.80;;;;;;6119653;23;20399;-86
2021/07/24 02:14:13;;;;;;;15.60;12.10;;;18.90;99.80;;;;;;6119593;23;20438;-86
2021/07/24 02:16:41;;;;;;;20.60;12.00;;;18.90;99.80;;;;;;6119011;23;20442;-86
2021/07/24 02:19:11;;;;;;;15.90;12.80;;;18.90;99.80;;;;;;6119962;23;20407;-86
2021/07/24 02:21:40;;;;;;;18.40;12.93;;;18.90;99.80;;;;;;6119400;23;20411;-86
2021/07/24 02:24:08;;;;;;;17.30;13.53;;;18.80;99.80;;;;;;6120010;23;20427;-86
2021/07/24 02:26:42;;;;;;;18.40;13.47;;;18.90;99.80;;;;;;6120471;23;20716;-86
2021/07/24 02:29:10;;;;;;;21.60;13.83;;;18.80;99.80;;;;;;6119812;23;20863;-86
2021/07/24 02:31:38;;;;;;;16.60;13.03;;;18.70;99.80;;;;;;6119740;23;20881;-85
2021/07/24 02:34:06;;;;;;;19.07;13.60;;;18.70;99.80;;;;;;6072323;23;20446;-86
2021/07/24 02:36:34;;;;;;;18.00;13.17;;;18.70;99.80;;;;;;6103458;23;20438;-86
2021/07/24 02:39:02;;;;;;;16.60;13.10;;;18.70;99.80;;;;;;6105347;23;20443;-86
2021/07/24 02:41:30;;;;;;;16.00;11.80;;;18.70;99.80;;;;;;6104911;23;20450;-86
2021/07/24 02:43:59;;;;;;;17.60;13.27;;;18.70;99.80;;;;;;6101000;23;20963;-87
2021/07/24 02:46:27;;;;;;;18.90;12.83;;;18.70;99.80;;;;;;6106822;23;20441;-86
2021/07/24 02:48:55;;;;;;;18.43;13.43;;;18.80;99.80;;;;;;6110956;23;21252;-87
2021/07/24 02:51:23;;;;;;;27.90;15.07;;;18.70;99.80;;;;;;6113629;23;20465;-85
2021/07/24 02:53:51;;;;;;;18.80;12.77;;;18.70;99.80;;;;;;6112445;23;20451;-86
2021/07/24 02:56:19;;;;;;;17.47;13.20;;;18.60;99.80;;;;;;6094331;23;20441;-86
2021/07/24 02:58:46;;;;;;;17.60;12.50;;;18.60;99.80;;;;;;6079936;23;20438;-86
2021/07/24 03:01:16;;;;;;;21.93;13.27;;;18.60;99.80;;;;;;6085513;23;20862;-87
2021/07/24 03:03:44;;;;;;;19.87;13.10;;;18.50;99.80;;;;;;6106055;23;20438;-86
2021/07/24 03:06:12;;;;;;;18.40;12.80;;;18.50;99.80;;;;;;6101490;23;20445;-86
2021/07/24 03:08:40;;;;;;;16.80;11.70;;;18.60;99.80;;;;;;6104074;23;20446;-85
2021/07/24 03:11:08;;;;;;;14.17;12.40;;;18.50;99.80;;;;;;6098706;23;20450;-86
2021/07/24 03:13:36;;;;;;;15.13;12.53;;;18.60;99.80;;;;;;6097442;23;20447;-86
2021/07/24 03:16:04;;;;;;;19.33;13.60;;;18.50;99.80;;;;;;6103478;23;20450;-86
2021/07/24 03:18:34;;;;;;;16.53;13.17;;;18.50;99.80;;;;;;6108812;23;20469;-86
2021/07/24 03:21:02;;;;;;;16.50;13.03;;;18.40;99.80;;;;;;6114146;23;20936;-86
2021/07/24 03:23:30;;;;;;;17.27;14.27;;;18.20;99.80;;;;;;6113521;23;20448;-86
2021/07/24 03:25:57;;;;;;;15.83;13.37;;;18.20;99.80;;;;;;6108353;23;20435;-86
2021/07/24 03:28:25;;;;;;;17.10;13.60;;;18.20;99.80;;;;;;6109354;23;20442;-86
2021/07/24 03:30:53;;;;;;;24.33;14.87;;;18.10;99.80;;;;;;6098983;23;20461;-85
2021/07/24 03:33:21;;;;;;;18.43;13.47;;;18.00;99.80;;;;;;6105605;23;20457;-86
2021/07/24 03:35:50;;;;;;;20.70;13.60;;;17.90;99.80;;;;;;6113169;23;20930;-86
2021/07/24 03:38:19;;;;;;;17.50;14.77;;;17.90;99.80;;;;;;6108108;23;20430;-86
2021/07/24 03:40:47;;;;;;;20.87;14.60;;;17.80;99.80;;;;;;6100804;23;20444;-85
2021/07/24 03:43:15;;;;;;;21.27;15.67;;;17.70;99.80;;;;;;6106820;23;20441;-86
2021/07/24 03:45:43;;;;;;;18.83;14.53;;;17.60;99.80;;;;;;6109841;23;20449;-86
2021/07/24 03:48:11;;;;;;;19.50;14.47;;;17.50;99.80;;;;;;6103259;23;20454;-86
2021/07/24 03:50:41;;;;;;;23.87;15.23;;;17.40;99.80;;;;;;6107037;23;20442;-88
2021/07/24 03:53:10;;;;;;;19.23;14.63;;;17.40;99.80;;;;;;6106273;23;20441;-86
2021/07/24 03:55:38;;;;;;;20.00;14.50;;;17.30;99.80;;;;;;6103352;23;20449;-86
2021/07/24 03:58:06;;;;;;;21.40;15.10;;;17.30;99.80;;;;;;6106523;23;20440;-86
2021/07/24 04:00:39;;;;;;;19.20;14.53;;;17.30;99.80;;;;;;6055735;23;20439;-85
2021/07/24 04:03:07;;;;;;;22.20;15.93;;;;;;;;;;6100484;23;20460;-85
2021/07/24 04:05:41;;;;;;;31.53;16.53;;;17.30;99.80;;;;;;6116698;23;20451;-86
2021/07/24 04:08:11;;;;;;;22.50;16.07;;;17.20;99.80;;;;;;6109570;23;21089;-86
2021/07/24 04:10:41;;;;;;;20.70;15.30;;;17.20;99.80;;;;;;6110446;23;20438;-86
2021/07/24 04:13:09;;;;;;;19.50;14.73;;;17.20;99.80;;;;;;6098986;23;20445;-88
2021/07/24 04:15:37;;;;;;;21.07;15.40;;;17.10;99.80;;;;;;6106302;23;20436;-86
2021/07/24 04:18:07;;;;;;;24.93;16.47;;;17.10;99.80;;;;;;6104245;23;20789;-87
2021/07/24 04:20:36;;;;;;;21.57;15.87;;;17.00;99.80;;;;;;6098984;23;20437;-86
2021/07/24 04:23:04;;;;;;;23.30;15.90;;;17.00;99.80;;;;;;6102575;23;20441;-85
2021/07/24 04:25:33;;;;;;;23.13;15.00;;;17.00;99.80;;;;;;6106088;23;20461;-87
2021/07/24 04:28:02;;;;;;;20.03;14.60;;;17.10;99.80;;;;;;6103843;23;20437;-86
2021/07/24 04:30:29;;;;;;;18.73;15.03;;;17.10;99.80;;;;;;6106426;23;20476;-85
2021/07/24 04:32:57;;;;;;;21.80;14.83;;;17.20;99.80;;;;;;6110428;23;20445;-87
2021/07/24 04:35:31;;;;;;;21.93;14.60;;;17.20;99.80;;;;;;6109977;23;20451;-85
2021/07/24 04:37:59;;;;;;;18.37;13.90;;;17.30;99.80;;;;;;6111343;23;20527;-86
2021/07/24 04:40:27;;;;;;;20.97;14.30;;;17.40;99.80;;;;;;6102328;23;20442;-86
2021/07/24 04:42:56;;;;;;;18.70;14.83;;;17.60;99.80;;;;;;6102219;23;20447;-86
2021/07/24 04:45:24;;;;;;;18.07;13.87;;;17.70;99.80;;;;;;6103871;23;20962;-86
2021/07/24 04:47:52;;;;;;;21.13;14.33;;;17.70;99.80;;;;;;6102828;23;20443;-86
2021/07/24 04:50:20;;;;;;;20.73;13.90;;;17.80;99.80;;;;;;6102429;23;20441;-86
2021/07/24 04:52:49;;;;;;;21.27;14.07;;;17.90;99.80;;;;;;6095764;23;20470;-86
2021/07/24 04:55:17;;;;;;;23.53;14.37;;;18.00;99.80;;;;;;6099942;23;20442;-86
2021/07/24 04:57:45;;;;;;;19.70;13.73;;;18.00;99.80;;;;;;6100690;23;20457;-87
2021/07/24 05:00:15;;;;;;;20.23;13.27;;;18.10;99.80;;;;;;6083916;23;20798;-86
2021/07/24 05:02:45;;;;;;;17.67;13.70;;;18.10;99.80;;;;;;6089993;23;20446;-86
2021/07/24 05:05:14;;;;;;;23.13;15.40;;;18.10;99.80;;;;;;6110785;23;20449;-86
2021/07/24 05:07:42;;;;;;;15.83;12.30;;;18.10;99.80;;;;;;6112667;23;20513;-87
2021/07/24 05:10:11;;;;;;;17.83;12.77;;;18.20;99.80;;;;;;6112574;23;20935;-86
2021/07/24 05:12:40;;;;;;;15.30;12.60;;;18.20;99.80;;;;;;6105168;23;20958;-86
2021/07/24 05:15:09;;;;;;;16.57;13.00;;;18.30;99.80;;;;;;6095858;23;20477;-86
2021/07/24 05:17:41;;;;;;;18.93;13.10;;;18.40;99.80;;;;;;6109016;23;20439;-86
2021/07/24 05:20:10;;;;;;;18.60;13.77;;;18.50;99.80;;;;;;6111852;23;20435;-86
2021/07/24 05:22:38;;;;;;;17.07;12.37;;;18.50;99.80;;;;;;6089731;23;20443;-86
2021/07/24 05:25:06;;;;;;;23.23;14.02;;;18.70;99.80;;;;;;6097922;23;20397;-86
2021/07/24 05:27:34;;;;;;;17.00;12.33;;;18.70;99.80;;;;;;6104955;23;20206;-87
2021/07/24 05:30:02;;;;;;;15.80;10.60;;;18.80;99.80;;;;;;6099163;23;20442;-86
2021/07/24 05:32:30;;;;;;;14.83;11.67;;;18.80;99.80;;;;;;6110036;23;21147;-87
2021/07/24 05:35:00;;;;;;;15.10;11.90;;;18.90;99.80;;;;;;6111882;23;20931;-87
2021/07/24 05:37:28;;;;;;;17.33;12.73;;;18.90;99.80;;;;;;6110717;23;20469;-86
2021/07/24 05:39:56;;;;;;;14.53;10.80;;;19.00;99.80;;;;;;6110368;23;20447;-86
2021/07/24 05:42:24;;;;;;;17.10;11.30;;;19.00;99.80;;;;;;6101745;23;20450;-86
2021/07/24 05:44:52;;;;;;;14.90;12.20;;;19.00;99.80;;;;;;6094598;23;21140;-86
2021/07/24 05:47:20;;;;;;;16.70;12.10;;;19.10;99.80;;;;;;6102099;23;20477;-86
2021/07/24 05:49:50;;;;;;;14.10;11.73;;;19.10;99.80;;;;;;6110608;23;20449;-88
2021/07/24 05:52:19;;;;;;;18.00;12.20;;;19.10;99.80;;;;;;6111825;23;20434;-86
2021/07/24 05:54:48;;;;;;;16.80;11.33;;;19.20;99.80;;;;;;6100742;23;20850;-86
2021/07/24 05:57:16;;;;;;;17.67;11.90;;;19.20;99.80;;;;;;6099338;23;20455;-86
2021/07/24 05:59:45;;;;;;;17.13;11.93;;;19.30;99.80;;;;;;6094019;23;20440;-86
2021/07/24 06:02:13;;;;;;;15.27;11.57;;;19.30;99.80;;;;;;6105904;23;21034;-86
2021/07/24 06:04:42;;;;;;;14.87;11.60;;;19.40;99.80;;;;;;6076368;23;20470;-86
2021/07/24 06:07:10;;;;;;;16.17;12.87;;;19.50;99.80;;;;;;6100699;23;20442;-86
2021/07/24 06:09:40;;;;;;;14.83;12.10;;;19.60;99.80;;;;;;6100954;23;20449;-89
2021/07/24 06:12:09;;;;;;;19.30;11.50;;;19.70;99.80;;;;;;6106953;23;20498;-86
2021/07/24 06:14:37;;;;;;;15.33;11.03;;;19.80;99.80;;;;;;6101283;23;20775;-87
2021/07/24 06:17:06;;;;;;;17.53;12.57;;;20.00;99.80;;;;;;6098105;23;20443;-86
2021/07/24 06:19:35;;;;;;;15.50;12.37;;;20.10;99.80;;;;;;6110027;23;20434;-86
2021/07/24 06:22:03;;;;;;;15.13;11.50;;;20.30;99.80;;;;;;6112735;23;20443;-87
2021/07/24 06:24:31;;;;;;;18.17;12.90;;;20.50;99.80;;;;;;6100685;23;20450;-88
2021/07/24 06:27:00;;;;;;;15.20;11.77;;;20.60;99.80;;;;;;6104723;23;20447;-87
2021/07/24 06:29:28;;;;;;;13.30;11.90;;;20.50;99.80;;;;;;6104466;23;20439;-86
2021/07/24 06:31:56;;;;;;;16.67;12.00;;;20.70;99.80;;;;;;6086276;23;21313;-90
2021/07/24 06:34:24;;;;;;;18.40;12.10;;;20.80;99.80;;;;;;6105566;23;20440;-90
2021/07/24 06:36:52;;;;;;;12.97;11.40;;;20.90;99.80;;;;;;6115476;23;20431;-90
2021/07/24 06:39:21;;;;;;;15.53;12.33;;;21.00;99.80;;;;;;6112800;23;20942;-90
2021/07/24 06:41:51;;;;;;;17.53;11.80;;;21.10;99.80;;;;;;6105845;23;20439;-90
2021/07/24 06:44:21;;;;;;;13.97;12.20;;;21.00;99.80;;;;;;6107405;23;20497;-90
2021/07/24 06:46:50;;;;;;;13.70;11.60;;;20.90;99.80;;;;;;6109122;23;21161;-89
2021/07/24 06:49:19;;;;;;;19.93;12.80;;;20.80;99.80;;;;;;6118411;23;20439;-90
2021/07/24 06:51:48;;;;;;;14.30;12.10;;;;;;;;;;6118279;23;20791;-88
2021/07/24 06:54:16;;;;;;;15.50;12.20;;;;;;;;;;6120106;23;20502;-89
2021/07/24 06:56:44;;;;;;;14.83;11.83;;;20.70;99.80;;;;;;6116319;23;20927;-90
2021/07/24 06:59:13;;;;;;;16.67;12.50;;;;;;;;;;6097234;23;20999;-90
2021/07/24 07:01:42;;;;;;;13.83;11.40;;;20.70;99.80;;;;;;6106323;23;20439;-90
2021/07/24 07:04:11;;;;;;;16.67;12.30;;;;;;;;;;6115867;23;20443;-90
2021/07/24 07:06:42;;;;;;;16.20;11.70;;;20.90;99.80;;;;;;6108534;23;20445;-90
2021/07/24 07:09:10;;;;;;;16.23;13.27;;;20.90;99.80;;;;;;6108032;23;20800;-88
2021/07/24 07:11:39;;;;;;;15.53;12.00;;;20.90;99.80;;;;;;6112505;23;20443;-90
2021/07/24 07:14:07;;;;;;;15.67;11.53;;;20.90;99.80;;;;;;6102519;23;21011;-88
2021/07/24 07:16:36;;;;;;;21.47;13.70;;;;;;;;;;6109559;23;20443;-90
2021/07/24 07:19:06;;;;;;;14.70;11.30;;;20.90;99.80;;;;;;6117264;23;20451;-88
2021/07/24 07:21:34;;;;;;;23.47;13.07;;;20.90;99.80;;;;;;6118027;23;20493;-88
2021/07/24 07:24:03;;;;;;;20.30;13.40;;;21.00;99.80;;;;;;6119843;23;20923;-88
2021/07/24 07:26:32;;;;;;;14.47;12.47;;;21.00;99.80;;;;;;6120944;23;20448;-88
2021/07/24 07:29:03;;;;;;;19.33;13.33;;;21.10;99.80;;;;;;6099226;23;20466;-90
2021/07/24 07:31:32;;;;;;;14.37;11.57;;;21.20;99.80;;;;;;6113945;23;20446;-90
2021/07/24 07:34:00;;;;;;;16.70;12.77;;;21.20;99.80;;;;;;6115299;23;20497;-88
2021/07/24 07:36:32;;;;;;;16.43;12.50;;;21.50;99.80;;;;;;6118910;23;20445;-88
2021/07/24 07:39:00;;;;;;;16.77;12.57;;;21.50;99.80;;;;;;6105740;23;20440;-88
2021/07/24 07:41:28;;;;;;;17.87;12.50;;;21.70;99.80;;;;;;6110313;23;20956;-88
2021/07/24 07:43:57;;;;;;;14.50;11.50;;;21.80;99.80;;;;;;6102819;23;20457;-88
2021/07/24 07:46:27;;;;;;;15.27;11.53;;;22.00;99.80;;;;;;6093459;23;20517;-89
2021/07/24 07:48:55;;;;;;;15.60;12.50;;;22.10;99.80;;;;;;6097359;23;20435;-87
2021/07/24 07:51:23;;;;;;;17.20;11.77;;;22.10;99.80;;;;;;6097278;23;20863;-85
2021/07/24 07:53:52;;;;;;;16.50;12.93;;;22.20;99.80;;;;;;6101106;23;20976;-85
2021/07/24 07:56:20;;;;;;;14.80;11.37;;;22.20;99.80;;;;;;6109278;23;20443;-85
2021/07/24 07:58:48;;;;;;;17.40;12.90;;;22.30;99.80;;;;;;6109185;23;21185;-85
2021/07/24 08:01:16;;;;;;;14.20;11.87;;;22.40;99.80;;;;;;6085427;23;20529;-85
2021/07/24 08:03:44;;;;;;;21.00;11.77;;;22.50;99.80;;;;;;6120443;23;20751;-85
2021/07/24 08:06:12;;;;;;;15.07;11.40;;;22.60;99.80;;;;;;6115952;23;20437;-85
2021/07/24 08:08:41;;;;;;;17.77;11.97;;;;;;;;;;6110415;23;20453;-85
2021/07/24 08:11:11;;;;;;;16.10;12.93;;;22.80;99.80;;;;;;6105585;23;20461;-85
2021/07/24 08:13:39;;;;;;;15.57;11.70;;;23.10;99.80;;;;;;6099306;23;20456;-85
2021/07/24 08:16:14;;;;;;;18.70;11.37;;;23.30;99.80;;;;;;6107177;23;20442;-86
2021/07/24 08:18:43;;;;;;;21.87;12.67;;;23.60;99.80;;;;;;6110805;23;20434;-85
2021/07/24 08:21:11;;;;;;;15.77;10.77;;;23.60;99.80;;;;;;6075282;23;20494;-87
2021/07/24 08:23:39;;;;;;;18.03;12.90;;;;;;;;;;6093329;23;20774;-86
2021/07/24 08:26:07;;;;;;;16.93;12.20;;;;;;;;;;6114512;23;20434;-87
2021/07/24 08:28:37;;;;;;;16.10;12.53;;;24.00;99.80;;;;;;6097979;23;20446;-85
2021/07/24 08:31:05;;;;;;;24.27;12.90;;;24.20;99.40;;;;;;6106748;23;20439;-85
2021/07/24 08:33:35;;;;;;;19.70;11.43;;;24.40;97.00;;;;;;6107288;23;20823;-87
2021/07/24 08:36:03;;;;;;;17.60;12.20;;;24.40;97.00;;;;;;6115095;23;20435;-86
2021/07/24 08:38:32;;;;;;;23.23;12.53;;;24.50;96.60;;;;;;6115359;23;20439;-85
2021/07/24 08:41:00;;;;;;;17.03;12.30;;;;;;;;;;6106527;23;20965;-85
2021/07/24 08:43:28;;;;;;;15.97;12.33;;;24.70;96.30;;;;;;6110148;23;20458;-85
2021/07/24 08:45:58;;;;;;;20.47;11.77;;;24.80;96.60;;;;;;6087402;23;20433;-88
2021/07/24 08:48:27;;;;;;;15.40;12.10;;;;;;;;;;6109180;23;20485;-86
2021/07/24 08:50:56;;;;;;;15.87;11.33;;;25.20;95.50;;;;;;6100297;23;20445;-87
2021/07/24 08:53:26;;;;;;;13.27;11.23;;;25.20;95.50;;;;;;6086004;23;20497;-85
2021/07/24 08:56:13;;;;;;;14.53;11.97;;;25.30;95.70;;;;;;6073872;23;20446;-86
2021/07/24 08:58:44;;;;;;;16.70;11.43;;;25.30;95.00;;;;;;6094894;23;20462;-87
2021/07/24 09:01:19;;;;;;;19.43;11.73;;;25.10;95.80;;;;;;6064637;23;20514;-86
2021/07/24 09:03:48;;;;;;;14.37;11.93;;;25.00;95.70;;;;;;6104146;23;20450;-89
2021/07/24 09:06:20;;;;;;;15.20;11.57;;;24.60;97.20;;;;;;6110383;23;20466;-86
2021/07/24 09:08:51;;;;;;;24.20;11.87;;;24.40;97.90;;;;;;6113984;23;20935;-86
2021/07/24 09:11:20;;;;;;;17.80;12.30;;;24.40;97.90;;;;;;6114654;23;20445;-86
2021/07/24 09:13:49;;;;;;;18.53;12.63;;;24.30;98.60;;;;;;6095503;23;20439;-86
2021/07/24 09:16:19;;;;;;;15.33;11.87;;;24.10;99.00;;;;;;6104164;23;20523;-86
2021/07/24 09:18:48;;;;;;;16.37;10.77;;;24.00;99.50;;;;;;6109483;23;20439;-85
2021/07/24 09:21:18;;;;;;;18.23;12.33;;;24.00;99.80;;;;;;6115104;23;20434;-87
2021/07/24 09:23:47;;;;;;;16.73;11.50;;;23.90;99.70;;;;;;6090847;23;20987;-87
2021/07/24 09:26:32;;;;;;;13.63;10.83;;;23.90;99.00;;;;;;6087754;23;20471;-87
2021/07/24 09:29:14;;;;;;;15.43;11.57;;;23.80;99.80;;;;;;6103460;23;20498;-86
2021/07/24 09:31:44;;;;;;;15.20;10.90;;;23.80;99.80;;;;;;6106630;23;20445;-88
2021/07/24 09:34:14;;;;;;;15.97;11.70;;;23.90;99.80;;;;;;6103413;23;21018;-84
2021/07/24 09:36:43;;;;;;;16.00;11.90;;;23.90;99.80;;;;;;6101214;23;20439;-86
2021/07/24 09:39:13;;;;;;;16.23;11.93;;;24.10;99.80;;;;;;6091187;23;20442;-85
2021/07/24 09:41:43;;;;;;;15.00;11.17;;;24.10;99.80;;;;;;6107123;23;20443;-86
2021/07/24 09:44:11;;;;;;;14.90;11.27;;;24.30;99.80;;;;;;6095839;23;20450;-85
2021/07/24 09:46:39;;;;;;;16.63;11.23;;;24.50;99.30;;;;;;6105427;23;20442;-86
2021/07/24 09:49:13;;;;;;;14.40;11.47;;;24.50;99.30;;;;;;6112875;23;20445;-85
2021/07/24 09:51:45;;;;;;;20.33;12.00;;;24.60;98.30;;;;;;6115548;23;20776;-86
2021/07/24 09:54:28;;;;;;;34.00;13.93;;;24.50;99.20;;;;;;6105762;23;20489;-85
2021/07/24 09:56:56;;;;;;;19.80;11.60;;;24.50;99.20;;;;;;6107571;23;20443;-86
2021/07/24 09:59:29;;;;;;;21.20;12.13;;;24.40;99.50;;;;;;6096353;23;20453;-87
2021/07/24 10:01:58;;;;;;;16.00;12.23;;;24.30;99.80;;;;;;6106500;23;20438;-85
2021/07/24 10:04:31;;;;;;;18.67;11.80;;;24.20;99.80;;;;;;6104958;23;20513;-86
2021/07/24 10:07:00;;;;;;;25.70;12.50;;;24.00;99.80;;;;;;6108445;23;20986;-85
2021/07/24 10:09:30;;;;;;;58.90;16.50;;;23.90;99.80;;;;;;6101101;23;20795;-86
2021/07/24 10:11:59;;;;;;;59.53;14.33;;;23.70;99.80;;;;;;6106339;23;20434;-85
2021/07/24 10:14:28;;;;;;;57.17;14.90;;;23.60;99.80;;;;;;6096350;23;20445;-85
2021/07/24 10:16:58;;;;;;;17.20;11.40;;;23.40;99.80;;;;;;6107506;23;20537;-86
2021/07/24 10:19:29;;;;;;;18.87;12.17;;;23.40;99.80;;;;;;6117266;23;20454;-85
2021/07/24 10:21:58;;;;;;;52.03;14.67;;;23.40;99.80;;;;;;6115498;23;21055;-85
2021/07/24 10:24:27;;;;;;;26.63;12.63;;;23.40;99.80;;;;;;6116219;23;20449;-86
2021/07/24 10:27:02;;;;;;;30.33;13.13;;;23.40;99.80;;;;;;6108702;23;20526;-85
2021/07/24 10:29:33;;;;;;;17.03;12.00;;;23.30;99.80;;;;;;6107597;23;21259;-86
2021/07/24 10:32:05;;;;;;;17.97;12.27;;;23.30;99.80;;;;;;6106139;23;20816;-86
2021/07/24 10:34:37;;;;;;;14.70;11.00;;;23.30;99.80;;;;;;6099058;23;20450;-86
2021/07/24 10:37:33;;;;;;;13.80;10.93;;;23.30;99.80;;;;;;6106074;23;20446;-86
2021/07/24 10:40:32;;;;;;;14.70;11.23;;;23.30;99.80;;;;;;6105022;23;20446;-87
2021/07/24 10:43:03;;;;;;;13.73;11.13;;;23.60;99.80;;;;;;6108326;23;20446;-86
2021/07/24 10:45:51;;;;;;;15.23;12.17;;;23.90;99.80;;;;;;6103460;23;20438;-86
2021/07/24 10:48:21;;;;;;;17.90;11.20;;;24.30;99.80;;;;;;6117472;23;20435;-85
2021/07/24 10:51:15;;;;;;;15.20;11.63;;;24.80;99.80;;;;;;6113492;23;20444;-86
2021/07/24 10:54:06;;;;;;;15.07;11.00;;;26.10;94.70;;;;;;6117140;23;20517;-86
2021/07/24 10:56:39;;;;;;;17.27;11.20;;;26.10;94.70;;;;;;6106040;23;20435;-85
2021/07/24 10:59:23;;;;;;;19.50;11.30;;;26.50;94.70;;;;;;6086429;23;20831;-85
2021/07/24 11:01:56;;;;;;;15.30;12.27;;;26.80;94.20;;;;;;6075904;23;20429;-86
2021/07/24 11:04:41;;;;;;;13.97;11.87;;;27.10;92.20;;;;;;6120678;23;20435;-85
2021/07/24 11:07:43;;;;;;;19.70;11.10;;;27.40;91.00;;;;;;6097456;23;20465;-86
2021/07/24 11:10:11;;;;;;;13.00;10.77;;;27.50;91.30;;;;;;6059086;23;20439;-86
2021/07/24 11:12:41;;;;;;;13.73;11.70;;;27.90;88.40;;;;;;6085151;23;20439;-86
2021/07/24 11:15:10;;;;;;;11.77;10.57;;;27.90;88.30;;;;;;6090271;23;20534;-86
2021/07/24 11:17:38;;;;;;;15.03;11.53;;;27.90;90.10;;;;;;6090275;23;21146;-86
2021/07/24 11:20:47;;;;;;;13.30;10.77;;;28.10;89.30;;;;;;6104913;23;20447;-85
2021/07/24 11:23:17;;;;;;;13.40;11.20;;;28.30;86.80;;;;;;6115623;23;20435;-86
2021/07/24 11:25:46;;;;;;;12.27;10.23;;;28.60;87.80;;;;;;6116805;23;20458;-86
2021/07/24 11:28:22;;;;;;;14.77;12.57;;;28.80;88.20;;;;;;6102692;23;20424;-85
2021/07/24 11:31:02;;;;;;;20.43;10.80;;;29.00;85.70;;;;;;6075373;23;20517;-86
2021/07/24 11:33:31;;;;;;;14.13;10.53;;;29.40;84.60;;;;;;6114028;23;20438;-87
2021/07/24 11:36:03;;;;;;;13.90;11.20;;;29.40;84.60;;;;;;6115656;23;20442;-87
2021/07/24 11:38:32;;;;;;;16.90;10.83;;;29.70;85.00;;;;;;6096858;23;20452;-86
2021/07/24 11:41:09;;;;;;;12.07;9.60;;;30.20;83.90;;;;;;6087352;23;20473;-86
2021/07/24 11:43:38;;;;;;;15.30;11.30;;;;;;;;;;6092229;23;20430;-87
2021/07/24 11:46:09;;;;;;;13.20;11.37;;;30.80;80.90;;;;;;6091193;23;20441;-86
2021/07/24 11:48:40;;;;;;;14.10;9.53;;;30.80;80.90;;;;;;6074028;23;20443;-85
2021/07/24 11:51:10;;;;;;;15.10;10.20;;;30.70;82.30;;;;;;6066678;23;20444;-86
2021/07/24 11:53:42;;;;;;;12.53;10.27;;;30.10;81.60;;;;;;6087198;23;20434;-85
2021/07/24 11:56:17;;;;;;;13.43;9.57;;;29.80;83.00;;;;;;6096062;23;20527;-86
2021/07/24 11:58:52;;;;;;;11.90;9.23;;;29.60;83.10;;;;;;6089023;23;20444;-86
2021/07/24 12:01:22;;;;;;;11.90;9.43;;;29.70;84.20;;;;;;6081555;23;20434;-86
2021/07/24 12:04:06;;;;;;;12.53;8.80;;;30.10;83.10;;;;;;6108784;23;20458;-86
2021/07/24 12:06:39;;;;;;;10.40;8.47;;;30.50;81.30;;;;;;6116890;23;20439;-86
2021/07/24 12:09:11;;;;;;;17.50;9.47;;;30.60;81.70;;;;;;6114165;23;20439;-86
2021/07/24 12:11:39;;;;;;;12.30;9.73;;;30.60;81.70;;;;;;6087515;23;21009;-86
2021/07/24 12:14:08;;;;;;;18.87;10.17;;;30.60;79.70;;;;;;6091538;23;20443;-86
2021/07/24 12:16:38;;;;;;;15.03;10.20;;;30.30;80.60;;;;;;6089696;23;20480;-86
2021/07/24 12:19:14;;;;;;;14.33;10.93;;;30.00;82.70;;;;;;6105460;23;22633;-86
2021/07/24 12:21:43;;;;;;;12.90;10.47;;;29.70;84.10;;;;;;6075019;23;20442;-86
2021/07/24 12:24:22;;;;;;;13.10;9.77;;;29.40;84.00;;;;;;6089373;23;20478;-87
2021/07/24 12:27:04;;;;;;;14.10;10.47;;;28.90;86.30;;;;;;6080494;23;20438;-85
2021/07/24 12:29:32;;;;;;;12.33;9.83;;;28.40;86.80;;;;;;6091129;23;21360;-87
2021/07/24 12:32:12;;;;;;;13.17;10.67;;;27.50;89.50;;;;;;6092506;23;20439;-86
2021/07/24 12:34:42;;;;;;;13.83;10.43;;;27.10;90.00;;;;;;6117129;23;20438;-87
2021/07/24 12:37:10;;;;;;;10.77;9.67;;;27.10;90.00;;;;;;6117533;23;20427;-87
2021/07/24 12:39:42;;;;;;;11.83;9.70;;;26.90;90.90;;;;;;6116098;23;20446;-86
2021/07/24 12:42:10;;;;;;;11.90;10.20;;;26.70;91.20;;;;;;6108911;23;20814;-86
2021/07/24 12:44:53;;;;;;;17.03;10.30;;;26.60;92.40;;;;;;6090725;23;20443;-86
2021/07/24 12:47:22;;;;;;;18.23;11.27;;;26.40;93.10;;;;;;6102579;23;20456;-86
2021/07/24 12:49:52;;;;;;;26.73;11.57;;;26.20;94.20;;;;;;6115233;23;20443;-86